Continental Highway — H9LY — position and weather

sailwx.info

Track history (hours):
 
Tides and Currents Weather Stations Pressure Air Temp Water Temp Dewpoint Dewpoint Depression Visibility Wind Speed Wind Dir Waves Ship Positions

Continental Highway

Last reported at 2014-Nov-17 12:33 UTC. Time now 2014-Nov-26 18:43 UTC.
Position N 48°31' W 127°45'.
Warning: this ship's position is 9 days out of date.

Length 199.9 m; beam 32.2 m.

Type: Cargo ship. MMSI: 351223000.

Date/timePositionNaut miles runAvg speedWind from/ knotsBaromVisibWave heightAir tempDewpointWater temp
2014-Nov-17 12:33N 48°31' W 127°45'1716.6
2014-Nov-17 11:33N 48°30' W 127°20'1716.2
2014-Nov-17 10:31N 48°31' W 126°55'1616.5
2014-Nov-17 09:33N 48°31' W 126°31'1717.1
2014-Nov-17 08:34N 48°31' W 126°05'1817.8
2014-Nov-17 07:33N 48°31' W 125°38'1817.7
2014-Nov-17 06:33N 48°31' W 125°11'1717.4
2014-Nov-17 05:34N 48°31' W 124°45'1717.4
2014-Nov-17 04:34N 48°24' W 124°21'1817.8
2014-Nov-17 03:34N 48°18' W 123°56'1817.8
2014-Nov-17 02:33N 48°17' W 123°29'1312.5
2014-Nov-17 01:34N 48°24' W 123°14'1818.0
2014-Nov-17 00:34N 48°42' W 123°14'1212.2
2014-Nov-16 23:34N 48°54' W 123°08'1414.0
2014-Nov-16 22:33N 49°06' W 123°18'9 9.3
2014-Nov-16 21:33N 49°07' W 123°04'7 6.1
2014-Nov-16 20:26N 49°11' W 122°55'0 0.0
2014-Nov-16 19:29N 49°11' W 122°55'0 0.0
2014-Nov-16 18:29N 49°11' W 122°55'0 0.0
2014-Nov-16 17:32N 49°11' W 122°55'0 0.0
2014-Nov-16 16:32N 49°11' W 122°55'0 0.0
2014-Nov-16 15:29N 49°11' W 122°55'0 0.0
2014-Nov-16 14:32N 49°11' W 122°55'0 0.0
2014-Nov-16 13:32N 49°11' W 122°55'0 0.0
2014-Nov-16 12:32N 49°11' W 122°55'0 0.0
2014-Nov-16 11:29N 49°11' W 122°55'0 0.0
2014-Nov-16 10:29N 49°11' W 122°55'0 0.0
2014-Nov-16 09:29N 49°11' W 122°55'0 0.0
2014-Nov-16 08:29N 49°11' W 122°55'0 0.0
2014-Nov-16 07:29N 49°11' W 122°55'0 0.0
2014-Nov-16 06:32N 49°11' W 122°55'3 3.3
2014-Nov-16 05:34N 49°09' W 122°60'1010.1
2014-Nov-16 04:34N 49°08' W 123°15'7 6.8
2014-Nov-16 03:34N 49°01' W 123°15'1615.6
2014-Nov-16 02:33N 48°49' W 123°01'1413.7
2014-Nov-16 01:33N 48°38' W 123°14'1414.0
2014-Nov-16 00:33N 48°24' W 123°13'8 8.0
2014-Nov-15 23:33N 48°21' W 123°24'4 3.8
2014-Nov-15 22:33N 48°17' W 123°26'6 6.0
2014-Nov-15 21:32N 48°14' W 123°34'7 6.7
2014-Nov-15 20:33N 48°13' W 123°44'7 6.8
2014-Nov-15 19:33N 48°13' W 123°54'1515.3
2014-Nov-15 18:33N 48°19' W 124°15'1616.1
2014-Nov-15 17:33N 48°26' W 124°37'1515.1
2014-Nov-15 16:33N 48°29' W 124°59'1716.4
2014-Nov-15 15:32N 48°13' W 125°10'1716.6
2014-Nov-15 14:32N 47°57' W 125°17'5417.0
2014-Nov-15 11:21N 47°05' W 124°58'1418.2
2014-Nov-15 10:33N 46°53' W 124°48'1818.1
2014-Nov-15 09:34N 46°37' W 124°34'1817.8
2014-Nov-15 08:34N 46°22' W 124°21'1312.9
2014-Nov-15 07:34N 46°15' W 124°05'1312.9
2014-Nov-15 06:34N 46°13' W 123°47'1514.8
2014-Nov-15 05:33N 46°14' W 123°26'1111.1
2014-Nov-15 04:33N 46°11' W 123°10'1414.0
2014-Nov-15 03:33N 46°04' W 122°53'1211.8
2014-Nov-15 02:33N 45°53' W 122°48'1413.8
2014-Nov-15 01:33N 45°39' W 122°46'3 2.9
2014-Nov-15 00:31N 45°36' W 122°47'0 0.0
2014-Nov-14 23:31N 45°36' W 122°47'0 0.0
2014-Nov-14 22:31N 45°36' W 122°47'0 0.0
2014-Nov-14 21:31N 45°36' W 122°47'0 0.0
2014-Nov-14 20:31N 45°36' W 122°47'0 0.0
2014-Nov-14 19:28N 45°36' W 122°47'0 0.0
2014-Nov-14 18:31N 45°36' W 122°47'0 0.0
2014-Nov-14 17:31N 45°36' W 122°47'0 0.0
2014-Nov-14 16:31N 45°36' W 122°47'0 0.0
2014-Nov-14 15:31N 45°36' W 122°47'0 0.0
2014-Nov-14 14:31N 45°36' W 122°47'0 0.0
2014-Nov-14 12:31N 45°36' W 122°47'0 0.0
2014-Nov-14 11:31N 45°36' W 122°47'0 0.0
2014-Nov-14 10:31N 45°36' W 122°47'0 0.0
2014-Nov-14 09:31N 45°36' W 122°47'0 0.0
2014-Nov-14 08:31N 45°36' W 122°47'0 0.0
2014-Nov-14 07:31N 45°36' W 122°47'0 0.0
2014-Nov-14 06:32N 45°36' W 122°47'0 0.0
2014-Nov-14 05:31N 45°36' W 122°47'0 0.0
2014-Nov-14 04:31N 45°36' W 122°47'0 0.0
2014-Nov-14 03:31N 45°36' W 122°47'0 0.0
2014-Nov-14 02:31N 45°36' W 122°47'0 0.0
2014-Nov-14 01:31N 45°36' W 122°47'0 0.0
2014-Nov-14 00:31N 45°36' W 122°47'0 0.0
2014-Nov-13 23:31N 45°36' W 122°47'0 0.0
2014-Nov-13 22:31N 45°36' W 122°47'0 0.0
2014-Nov-13 21:31N 45°36' W 122°47'0 0.0
2014-Nov-13 20:31N 45°36' W 122°47'0 0.0
2014-Nov-13 19:31N 45°36' W 122°47'0 0.0
2014-Nov-13 18:31N 45°36' W 122°47'0 0.0
2014-Nov-13 17:31N 45°36' W 122°47'0 0.0
2014-Nov-13 16:31N 45°36' W 122°47'0 0.0
2014-Nov-13 15:31N 45°36' W 122°47'0 0.0
2014-Nov-13 14:28N 45°36' W 122°47'0 0.0
2014-Nov-13 13:31N 45°36' W 122°47'0 0.0
2014-Nov-13 12:31N 45°36' W 122°47'0 0.0
2014-Nov-13 11:31N 45°36' W 122°47'0 0.0
2014-Nov-13 10:33N 45°36' W 122°47'4 4.4
2014-Nov-13 09:33N 45°40' W 122°46'1313.0
2014-Nov-13 08:33N 45°53' W 122°48'1212.1
2014-Nov-13 07:33N 46°05' W 122°54'1212.1
2014-Nov-13 06:33N 46°11' W 123°08'1212.0
2014-Nov-13 05:33N 46°11' W 123°26'10 9.8
2014-Nov-13 04:33N 46°16' W 123°38'1010.4
2014-Nov-13 03:33N 46°12' W 123°52'1010.3
2014-Nov-13 02:33N 46°15' W 124°06'1211.5
2014-Nov-13 01:33N 46°10' W 124°21'10 9.9
2014-Nov-13 00:34N 46°10' W 124°36'1211.6
2014-Nov-12 23:33N 46°11' W 124°52'1615.8
2014-Nov-12 22:33N 46°12' W 125°15'  
Track history (hours):
 
Tides and Currents Weather Stations Pressure Air Temp Water Temp Dewpoint Dewpoint Depression Visibility Wind Speed Wind Dir Waves Ship Positions

Continental Highway

Last reported at 2014-Nov-17 12:33 UTC. Time now 2014-Nov-26 18:43 UTC.
Position N 48°31' W 127°45'.
Warning: this ship's position is 9 days out of date.

Length 199.9 m; beam 32.2 m.

Type: Cargo ship. MMSI: 351223000.

Date/timePositionNaut miles runAvg speedWind from/ knotsBaromVisibWave heightAir tempDewpointWater temp
2014-Nov-17 12:33N 48°31' W 127°45'1716.6
2014-Nov-17 11:33N 48°30' W 127°20'1716.2
2014-Nov-17 10:31N 48°31' W 126°55'1616.5
2014-Nov-17 09:33N 48°31' W 126°31'1717.1
2014-Nov-17 08:34N 48°31' W 126°05'1817.8
2014-Nov-17 07:33N 48°31' W 125°38'1817.7
2014-Nov-17 06:33N 48°31' W 125°11'1717.4
2014-Nov-17 05:34N 48°31' W 124°45'1717.4
2014-Nov-17 04:34N 48°24' W 124°21'1817.8
2014-Nov-17 03:34N 48°18' W 123°56'1817.8
2014-Nov-17 02:33N 48°17' W 123°29'1312.5
2014-Nov-17 01:34N 48°24' W 123°14'1818.0
2014-Nov-17 00:34N 48°42' W 123°14'1212.2
2014-Nov-16 23:34N 48°54' W 123°08'1414.0
2014-Nov-16 22:33N 49°06' W 123°18'9 9.3
2014-Nov-16 21:33N 49°07' W 123°04'7 6.1
2014-Nov-16 20:26N 49°11' W 122°55'0 0.0
2014-Nov-16 19:29N 49°11' W 122°55'0 0.0
2014-Nov-16 18:29N 49°11' W 122°55'0 0.0
2014-Nov-16 17:32N 49°11' W 122°55'0 0.0
2014-Nov-16 16:32N 49°11' W 122°55'0 0.0
2014-Nov-16 15:29N 49°11' W 122°55'0 0.0
2014-Nov-16 14:32N 49°11' W 122°55'0 0.0
2014-Nov-16 13:32N 49°11' W 122°55'0 0.0
2014-Nov-16 12:32N 49°11' W 122°55'0 0.0
2014-Nov-16 11:29N 49°11' W 122°55'0 0.0
2014-Nov-16 10:29N 49°11' W 122°55'0 0.0
2014-Nov-16 09:29N 49°11' W 122°55'0 0.0
2014-Nov-16 08:29N 49°11' W 122°55'0 0.0
2014-Nov-16 07:29N 49°11' W 122°55'0 0.0
2014-Nov-16 06:32N 49°11' W 122°55'3 3.3
2014-Nov-16 05:34N 49°09' W 122°60'1010.1
2014-Nov-16 04:34N 49°08' W 123°15'7 6.8
2014-Nov-16 03:34N 49°01' W 123°15'1615.6
2014-Nov-16 02:33N 48°49' W 123°01'1413.7
2014-Nov-16 01:33N 48°38' W 123°14'1414.0
2014-Nov-16 00:33N 48°24' W 123°13'8 8.0
2014-Nov-15 23:33N 48°21' W 123°24'4 3.8
2014-Nov-15 22:33N 48°17' W 123°26'6 6.0
2014-Nov-15 21:32N 48°14' W 123°34'7 6.7
2014-Nov-15 20:33N 48°13' W 123°44'7 6.8
2014-Nov-15 19:33N 48°13' W 123°54'1515.3
2014-Nov-15 18:33N 48°19' W 124°15'1616.1
2014-Nov-15 17:33N 48°26' W 124°37'1515.1
2014-Nov-15 16:33N 48°29' W 124°59'1716.4
2014-Nov-15 15:32N 48°13' W 125°10'1716.6
2014-Nov-15 14:32N 47°57' W 125°17'5417.0
2014-Nov-15 11:21N 47°05' W 124°58'1418.2
2014-Nov-15 10:33N 46°53' W 124°48'1818.1
2014-Nov-15 09:34N 46°37' W 124°34'1817.8
2014-Nov-15 08:34N 46°22' W 124°21'1312.9
2014-Nov-15 07:34N 46°15' W 124°05'1312.9
2014-Nov-15 06:34N 46°13' W 123°47'1514.8
2014-Nov-15 05:33N 46°14' W 123°26'1111.1
2014-Nov-15 04:33N 46°11' W 123°10'1414.0
2014-Nov-15 03:33N 46°04' W 122°53'1211.8
2014-Nov-15 02:33N 45°53' W 122°48'1413.8
2014-Nov-15 01:33N 45°39' W 122°46'3 2.9
2014-Nov-15 00:31N 45°36' W 122°47'0 0.0
2014-Nov-14 23:31N 45°36' W 122°47'0 0.0
2014-Nov-14 22:31N 45°36' W 122°47'0 0.0
2014-Nov-14 21:31N 45°36' W 122°47'0 0.0
2014-Nov-14 20:31N 45°36' W 122°47'0 0.0
2014-Nov-14 19:28N 45°36' W 122°47'0 0.0
2014-Nov-14 18:31N 45°36' W 122°47'0 0.0
2014-Nov-14 17:31N 45°36' W 122°47'0 0.0
2014-Nov-14 16:31N 45°36' W 122°47'0 0.0
2014-Nov-14 15:31N 45°36' W 122°47'0 0.0
2014-Nov-14 14:31N 45°36' W 122°47'0 0.0
2014-Nov-14 12:31N 45°36' W 122°47'0 0.0
2014-Nov-14 11:31N 45°36' W 122°47'0 0.0
2014-Nov-14 10:31N 45°36' W 122°47'0 0.0
2014-Nov-14 09:31N 45°36' W 122°47'0 0.0
2014-Nov-14 08:31N 45°36' W 122°47'0 0.0
2014-Nov-14 07:31N 45°36' W 122°47'0 0.0
2014-Nov-14 06:32N 45°36' W 122°47'0 0.0
2014-Nov-14 05:31N 45°36' W 122°47'0 0.0
2014-Nov-14 04:31N 45°36' W 122°47'0 0.0
2014-Nov-14 03:31N 45°36' W 122°47'0 0.0
2014-Nov-14 02:31N 45°36' W 122°47'0 0.0
2014-Nov-14 01:31N 45°36' W 122°47'0 0.0
2014-Nov-14 00:31N 45°36' W 122°47'0 0.0
2014-Nov-13 23:31N 45°36' W 122°47'0 0.0
2014-Nov-13 22:31N 45°36' W 122°47'0 0.0
2014-Nov-13 21:31N 45°36' W 122°47'0 0.0
2014-Nov-13 20:31N 45°36' W 122°47'0 0.0
2014-Nov-13 19:31N 45°36' W 122°47'0 0.0
2014-Nov-13 18:31N 45°36' W 122°47'0 0.0
2014-Nov-13 17:31N 45°36' W 122°47'0 0.0
2014-Nov-13 16:31N 45°36' W 122°47'0 0.0
2014-Nov-13 15:31N 45°36' W 122°47'0 0.0
2014-Nov-13 14:28N 45°36' W 122°47'0 0.0
2014-Nov-13 13:31N 45°36' W 122°47'0 0.0
2014-Nov-13 12:31N 45°36' W 122°47'0 0.0
2014-Nov-13 11:31N 45°36' W 122°47'0 0.0
2014-Nov-13 10:33N 45°36' W 122°47'4 4.4
2014-Nov-13 09:33N 45°40' W 122°46'1313.0
2014-Nov-13 08:33N 45°53' W 122°48'1212.1
2014-Nov-13 07:33N 46°05' W 122°54'1212.1
2014-Nov-13 06:33N 46°11' W 123°08'1212.0
2014-Nov-13 05:33N 46°11' W 123°26'10 9.8
2014-Nov-13 04:33N 46°16' W 123°38'1010.4
2014-Nov-13 03:33N 46°12' W 123°52'1010.3
2014-Nov-13 02:33N 46°15' W 124°06'1211.5
2014-Nov-13 01:33N 46°10' W 124°21'10 9.9
2014-Nov-13 00:34N 46°10' W 124°36'1211.6
2014-Nov-12 23:33N 46°11' W 124°52'1615.8
2014-Nov-12 22:33N 46°12' W 125°15'  

Dump ship's entire track history